SBBE/BEL METAR and TAF weather

Enter ICAO airport designator
Station Type Date Time Source
SBBE METAR 2019/05/26 23:00 UTC NOAA

SBBE 262300Z 18002KT 9999 FEW010 SCT025 25/24 Q1012


Station Type Date Time Source
SBBE Decoded METAR 2019/05/26 23:00 UTC NOAA

Belem Aeroporto , Brazil (SBBE) 01-23S 048-29W 16M
May 26, 2019 - 07:00 PM EDT / 2019.05.26 2300 UTC
Wind: from the S (180 degrees) at 2 MPH (2 KT):0
Visibility: greater than 7 mile(s):0
Sky conditions: partly cloudy
Temperature: 77 F (25 C)
Dew Point: 75 F (24 C)
Relative Humidity: 94%
Pressure (altimeter): 29.88 in. Hg (1012 hPa)
ob: SBBE 262300Z 18002KT 9999 FEW010 SCT025 25/24 Q1012
cycle: 23

Station Type Date Time Source
SBBE TAF 2019/05/26 18:56 UTC NOAA

TAF SBBE 261600Z 2618/2718 01005KT 8000 BKN030 FEW035TCU TN23/2708Z T X30/2716Z PROB30
TEMPO 2618/2621 06005KT 5000 TSRA BKN020 FEW035CB
BECMG 2622/ 2624 08005KT 9999 FEW020
BECMG 2702/2704 CAVOK
BECMG 2709/2711 11005KT 99 99 FEW015
BECMG 2713/2715 08010KT BKN020
RMK PEN

Example: see airport list